createdAt,value
2023-02-28T00:02:06.564Z,50.88
2023-02-28T00:05:09.977Z,51.57
2023-02-28T00:08:11.925Z,50.97
2023-02-28T00:11:15.654Z,51.27
2023-02-28T00:14:17.669Z,51.99
2023-02-28T00:17:23.156Z,51.95
2023-02-28T00:20:25.495Z,51.62
2023-02-28T00:23:29.175Z,52.04
2023-02-28T00:26:31.133Z,52.30
2023-02-28T00:29:33.493Z,52.17
2023-02-28T00:32:35.723Z,52.64
2023-02-28T00:35:37.755Z,52.61
2023-02-28T00:38:41.485Z,51.91
2023-02-28T00:41:43.824Z,52.11
2023-02-28T00:44:45.685Z,52.02
2023-02-28T00:47:52.786Z,51.79
2023-02-28T00:50:59.496Z,52.53
2023-02-28T00:54:01.566Z,51.60
2023-02-28T00:57:03.620Z,52.52
2023-02-28T01:00:08.736Z,51.96
2023-02-28T01:03:11.004Z,52.37
2023-02-28T01:06:13.649Z,52.73
2023-02-28T01:09:15.927Z,52.28
2023-02-28T01:12:18.209Z,53.40
2023-02-28T01:15:20.640Z,52.72
2023-02-28T01:18:24.055Z,52.63
2023-02-28T01:21:26.231Z,52.83
2023-02-28T01:24:28.435Z,53.11
2023-02-28T01:27:30.575Z,53.07
2023-02-28T01:30:33.767Z,53.39
2023-02-28T01:33:36.214Z,53.55
2023-02-28T01:36:39.448Z,54.16
2023-02-28T01:39:41.850Z,54.15
2023-02-28T01:42:45.904Z,54.32
2023-02-28T01:45:50.458Z,54.47
2023-02-28T01:48:58.369Z,54.29
2023-02-28T01:52:01.035Z,53.70
2023-02-28T01:55:08.077Z,54.61
2023-02-28T01:58:10.946Z,54.81
2023-02-28T02:01:22.275Z,54.65
2023-02-28T02:04:29.698Z,54.98
2023-02-28T02:07:37.152Z,54.58
2023-02-28T02:10:45.982Z,54.47
2023-02-28T02:13:53.849Z,53.93
2023-02-28T02:17:13.974Z,54.16
2023-02-28T02:20:46.143Z,54.09
2023-02-28T02:24:06.823Z,54.30
2023-02-28T02:27:39.325Z,55.21
2023-02-28T02:31:06.227Z,54.78
2023-02-28T02:34:52.715Z,54.70
2023-02-28T02:38:27.265Z,54.41
2023-02-28T02:41:43.208Z,53.81
2023-02-28T02:44:55.199Z,52.97
2023-02-28T02:48:01.063Z,53.01
2023-02-28T02:51:13.079Z,52.96
2023-02-28T02:54:25.085Z,52.83
2023-02-28T02:57:34.354Z,52.62
2023-02-28T03:00:42.440Z,52.50
2023-02-28T03:03:46.246Z,53.58
2023-02-28T03:06:48.761Z,53.51
2023-02-28T03:09:56.071Z,53.47
2023-02-28T03:13:13.176Z,53.52
2023-02-28T03:16:28.934Z,53.82
2023-02-28T03:19:43.641Z,53.91
2023-02-28T03:22:45.703Z,53.53
2023-02-28T03:26:05.069Z,53.66
2023-02-28T03:29:23.454Z,53.86
2023-02-28T03:32:38.241Z,53.77
2023-02-28T03:36:19.177Z,54.02
2023-02-28T03:39:28.354Z,53.83
2023-02-28T03:42:34.767Z,54.21
2023-02-28T03:45:39.346Z,54.71
2023-02-28T03:49:02.559Z,54.50
2023-02-28T03:52:09.764Z,54.41
2023-02-28T03:55:14.049Z,54.09
2023-02-28T03:58:30.021Z,53.78
2023-02-28T04:01:42.400Z,54.80
2023-02-28T04:04:46.674Z,54.28
2023-02-28T04:07:50.293Z,52.99
2023-02-28T04:11:16.430Z,52.75
2023-02-28T04:14:19.115Z,52.90
2023-02-28T04:17:21.233Z,52.69
2023-02-28T04:20:23.276Z,53.20
2023-02-28T04:23:25.408Z,53.56
2023-02-28T04:26:35.507Z,53.31
2023-02-28T04:29:38.101Z,53.73
2023-02-28T04:32:40.420Z,53.74
2023-02-28T04:35:44.634Z,54.29
2023-02-28T04:38:47.373Z,53.82
2023-02-28T04:41:49.407Z,53.37
2023-02-28T04:44:51.355Z,53.08
2023-02-28T04:47:54.717Z,53.70
2023-02-28T04:51:01.792Z,53.92
2023-02-28T04:54:04.553Z,53.01
2023-02-28T04:57:07.401Z,53.80
2023-02-28T05:00:12.692Z,53.29
2023-02-28T05:03:15.348Z,53.19
2023-02-28T05:06:18.425Z,52.96
2023-02-28T05:09:20.429Z,53.61
2023-02-28T05:12:23.909Z,53.67
2023-02-28T05:15:27.134Z,53.75
2023-02-28T05:18:29.377Z,53.74
2023-02-28T05:21:35.275Z,53.78
2023-02-28T05:24:37.417Z,53.35
2023-02-28T05:27:39.692Z,53.23
2023-02-28T05:30:41.853Z,52.87
2023-02-28T05:33:44.209Z,53.48
2023-02-28T05:36:46.368Z,53.42
2023-02-28T05:39:48.573Z,53.25
2023-02-28T05:42:52.103Z,52.95
2023-02-28T05:45:54.930Z,53.50
2023-02-28T05:48:59.014Z,53.31
2023-02-28T05:52:01.627Z,52.82
2023-02-28T05:55:04.344Z,53.08
2023-02-28T05:58:06.272Z,52.71
2023-02-28T06:01:34.526Z,52.67
2023-02-28T06:04:36.726Z,52.60
2023-02-28T06:07:38.873Z,52.42
2023-02-28T06:10:41.157Z,51.86
2023-02-28T06:13:43.242Z,52.11
2023-02-28T06:16:46.085Z,52.78
2023-02-28T06:19:49.155Z,51.98
2023-02-28T06:22:55.586Z,53.07
2023-02-28T06:25:59.474Z,52.29
2023-02-28T06:29:05.206Z,52.71
2023-02-28T06:32:07.420Z,52.47
2023-02-28T06:35:11.256Z,52.50
2023-02-28T06:38:13.454Z,52.26
2023-02-28T06:41:15.359Z,52.80
2023-02-28T06:44:19.570Z,53.56
2023-02-28T06:47:21.644Z,52.67
2023-02-28T06:50:24.212Z,52.48
2023-02-28T06:53:29.027Z,52.38
2023-02-28T06:56:31.176Z,52.03
2023-02-28T06:59:33.851Z,51.62
2023-02-28T07:02:39.529Z,50.87
2023-02-28T07:05:41.745Z,50.73
2023-02-28T07:08:45.625Z,50.64
2023-02-28T07:11:48.364Z,50.78
2023-02-28T07:14:55.882Z,50.60
2023-02-28T07:17:58.817Z,51.05
2023-02-28T07:21:13.084Z,50.91
2023-02-28T07:24:22.712Z,50.45
2023-02-28T07:27:37.007Z,50.39
2023-02-28T07:30:39.854Z,49.58
2023-02-28T07:33:44.327Z,49.19
2023-02-28T07:36:46.779Z,49.48
2023-02-28T07:39:49.804Z,49.33
2023-02-28T07:42:56.418Z,48.70
2023-02-28T07:46:04.807Z,48.55
2023-02-28T07:49:07.735Z,48.44
2023-02-28T07:52:12.225Z,49.67
2023-02-28T07:55:15.410Z,48.32
2023-02-28T07:58:20.847Z,48.04
2023-02-28T08:01:42.194Z,47.84
2023-02-28T08:04:57.157Z,48.48
2023-02-28T08:12:50.794Z,48.11
2023-02-28T08:16:06.475Z,47.83
2023-02-28T08:23:24.230Z,46.80
2023-02-28T08:26:28.960Z,46.77
2023-02-28T08:29:34.352Z,46.80
2023-02-28T08:32:44.016Z,46.85
2023-02-28T08:35:58.378Z,46.95
2023-02-28T08:39:06.194Z,46.46
2023-02-28T08:42:11.797Z,46.74
2023-02-28T08:45:21.345Z,46.56
2023-02-28T08:48:28.546Z,47.24
2023-02-28T08:51:33.436Z,46.85
2023-02-28T08:54:37.506Z,47.55
2023-02-28T08:57:40.415Z,47.83
2023-02-28T09:00:44.744Z,47.74
2023-02-28T09:07:18.630Z,46.81
2023-02-28T09:10:27.077Z,46.84
2023-02-28T09:13:31.555Z,46.83
2023-02-28T09:16:35.766Z,47.10
2023-02-28T09:19:39.136Z,46.71
2023-02-28T09:27:05.038Z,46.58
2023-02-28T09:30:20.987Z,46.90
2023-02-28T09:33:24.943Z,46.74
2023-02-28T09:36:43.725Z,45.57
2023-02-28T09:39:53.874Z,44.95
2023-02-28T09:43:05.661Z,45.21
2023-02-28T09:46:37.446Z,45.74
2023-02-28T09:49:48.165Z,44.80
2023-02-28T09:52:53.598Z,45.57
2023-02-28T09:56:44.024Z,45.71
2023-02-28T10:00:13.787Z,46.21
2023-02-28T10:03:44.009Z,46.10
2023-02-28T10:06:56.075Z,46.15
2023-02-28T10:10:06.162Z,45.75
2023-02-28T10:13:22.653Z,45.77
2023-02-28T10:16:33.851Z,46.00
2023-02-28T10:19:56.688Z,45.99
2023-02-28T10:23:18.536Z,45.49
2023-02-28T10:26:21.958Z,45.60
2023-02-28T10:29:38.223Z,46.71
2023-02-28T10:32:49.708Z,46.08
2023-02-28T10:35:54.428Z,45.57
2023-02-28T10:39:00.460Z,45.98
2023-02-28T10:42:08.584Z,45.31
2023-02-28T10:46:20.802Z,44.83
2023-02-28T10:49:35.215Z,44.88
2023-02-28T10:52:43.670Z,45.21
2023-02-28T10:56:10.309Z,44.92
2023-02-28T11:03:31.427Z,44.78
2023-02-28T11:07:53.418Z,44.99
2023-02-28T11:11:55.980Z,44.31
2023-02-28T11:15:38.567Z,44.44
2023-02-28T11:18:58.820Z,45.04
2023-02-28T11:22:06.936Z,44.45
2023-02-28T11:25:23.850Z,43.92
2023-02-28T11:28:45.040Z,44.44
2023-02-28T11:32:08.079Z,45.03
2023-02-28T11:35:24.277Z,45.22
2023-02-28T11:38:29.160Z,45.58
2023-02-28T11:41:34.551Z,45.34
2023-02-28T11:45:44.377Z,46.10
2023-02-28T11:49:55.194Z,44.61
2023-02-28T11:53:45.836Z,45.69
2023-02-28T11:57:00.948Z,44.56
2023-02-28T12:00:44.762Z,44.99
2023-02-28T12:04:36.709Z,45.83
2023-02-28T12:08:13.535Z,45.43
2023-02-28T12:16:13.954Z,44.11
2023-02-28T12:21:31.006Z,45.02
2023-02-28T12:24:22.834Z,45.85
2023-02-28T12:27:29.906Z,45.29
2023-02-28T12:30:42.534Z,45.60
2023-02-28T12:33:53.133Z,45.40
2023-02-28T12:37:00.103Z,44.32
2023-02-28T12:40:11.018Z,45.24
2023-02-28T12:43:15.909Z,45.47
2023-02-28T12:46:32.660Z,45.76
2023-02-28T12:50:06.571Z,44.85
2023-02-28T12:54:00.922Z,45.36
2023-02-28T12:57:44.563Z,45.08
2023-02-28T13:05:06.520Z,45.70
2023-02-28T13:08:15.400Z,45.48
2023-02-28T13:11:31.183Z,46.16
2023-02-28T13:14:45.139Z,46.40
2023-02-28T13:21:50.070Z,47.17
2023-02-28T13:28:56.047Z,46.75
2023-02-28T13:32:32.432Z,47.04
2023-02-28T13:35:45.463Z,46.86
2023-02-28T13:39:02.313Z,47.33
2023-02-28T13:42:32.293Z,46.57
2023-02-28T13:45:40.864Z,47.48
2023-02-28T13:48:47.064Z,47.04
2023-02-28T13:51:53.289Z,46.58
2023-02-28T13:55:26.510Z,47.64
2023-02-28T13:58:58.597Z,47.17
2023-02-28T14:02:55.699Z,47.57
2023-02-28T14:06:21.094Z,47.27
2023-02-28T14:09:53.360Z,47.54
2023-02-28T14:13:34.945Z,46.96
2023-02-28T14:16:47.932Z,47.54
2023-02-28T14:19:54.019Z,47.64
2023-02-28T14:23:16.345Z,46.86
2023-02-28T14:27:01.136Z,47.47
2023-02-28T14:30:25.129Z,48.05
2023-02-28T14:33:32.076Z,47.92
2023-02-28T14:36:38.476Z,48.14
2023-02-28T14:39:45.953Z,47.85
2023-02-28T14:42:56.967Z,48.01
2023-02-28T14:46:03.713Z,47.54
2023-02-28T14:49:10.899Z,47.79
2023-02-28T14:52:42.944Z,47.25
2023-02-28T14:55:50.701Z,47.49
2023-02-28T14:59:30.547Z,47.85
2023-02-28T15:02:40.875Z,47.83
2023-02-28T15:05:43.418Z,47.73
2023-02-28T15:08:47.532Z,47.95
2023-02-28T15:11:51.819Z,47.43
2023-02-28T15:14:58.176Z,47.98
2023-02-28T15:18:04.558Z,48.60
2023-02-28T15:21:15.598Z,48.67
2023-02-28T15:24:37.295Z,48.45
2023-02-28T15:27:48.411Z,48.93
2023-02-28T15:31:04.858Z,49.45
2023-02-28T15:34:10.628Z,50.23
2023-02-28T15:38:06.480Z,50.65
2023-02-28T15:41:27.677Z,51.00
2023-02-28T15:44:41.046Z,51.26
2023-02-28T15:47:54.691Z,51.44
2023-02-28T15:51:23.821Z,51.67
2023-02-28T15:54:36.105Z,51.39
2023-02-28T15:57:43.725Z,51.64
2023-02-28T16:01:17.153Z,51.58
2023-02-28T16:04:20.890Z,51.88
2023-02-28T16:07:25.926Z,51.99
2023-02-28T16:10:32.970Z,52.56
2023-02-28T16:13:40.046Z,52.19
2023-02-28T16:16:48.284Z,52.39
2023-02-28T16:20:04.455Z,52.42
2023-02-28T16:23:10.011Z,53.38
2023-02-28T16:26:24.577Z,53.72
2023-02-28T16:29:32.823Z,53.35
2023-02-28T16:32:38.372Z,53.68
2023-02-28T16:35:46.125Z,53.68
2023-02-28T16:38:51.805Z,53.84
2023-02-28T16:42:03.791Z,53.84
2023-02-28T16:45:13.493Z,54.37
2023-02-28T16:48:18.811Z,54.25
2023-02-28T16:51:24.294Z,54.74
2023-02-28T16:54:28.795Z,54.05
2023-02-28T16:57:33.941Z,54.88
2023-02-28T17:00:38.543Z,54.64
2023-02-28T17:03:42.436Z,54.83
2023-02-28T17:06:45.904Z,55.02
2023-02-28T17:09:49.759Z,54.94
2023-02-28T17:12:53.708Z,55.17
2023-02-28T17:15:57.558Z,54.59
2023-02-28T17:19:05.264Z,55.09
2023-02-28T17:22:11.709Z,55.63
2023-02-28T17:25:19.590Z,55.13
2023-02-28T17:28:23.427Z,55.74
2023-02-28T17:31:29.254Z,55.11
2023-02-28T17:34:33.013Z,55.02
2023-02-28T17:37:37.032Z,55.52
2023-02-28T17:40:43.113Z,55.48
2023-02-28T17:43:45.515Z,55.15
2023-02-28T17:46:48.119Z,55.23
2023-02-28T17:49:50.272Z,56.06
2023-02-28T17:52:52.962Z,55.75
2023-02-28T17:56:00.649Z,55.77
2023-02-28T17:59:03.783Z,56.24
2023-02-28T18:02:14.708Z,56.14
2023-02-28T18:05:22.640Z,55.63
2023-02-28T18:08:25.876Z,56.15
2023-02-28T18:11:48.907Z,55.91
2023-02-28T18:14:51.694Z,55.82
2023-02-28T18:17:54.100Z,55.63
2023-02-28T18:20:58.024Z,55.43
2023-02-28T18:24:00.962Z,55.56
2023-02-28T18:27:05.179Z,55.82
2023-02-28T18:30:11.560Z,55.62
2023-02-28T18:33:18.523Z,55.77
2023-02-28T18:36:21.987Z,56.02
2023-02-28T18:39:27.120Z,55.86
2023-02-28T18:42:31.050Z,55.67
2023-02-28T18:45:39.274Z,55.53
2023-02-28T18:48:44.535Z,55.28
2023-02-28T18:51:47.297Z,55.98
2023-02-28T18:54:49.756Z,55.51
2023-02-28T18:57:52.187Z,56.34
2023-02-28T19:00:55.926Z,56.32
2023-02-28T19:04:03.598Z,56.46
2023-02-28T19:07:07.796Z,56.06
2023-02-28T19:10:11.381Z,55.88
2023-02-28T19:13:16.767Z,56.80
2023-02-28T19:16:24.299Z,56.71
2023-02-28T19:19:27.037Z,56.49
2023-02-28T19:22:32.037Z,56.45
2023-02-28T19:25:35.313Z,55.87
2023-02-28T19:28:38.708Z,55.96
2023-02-28T19:31:43.334Z,56.11
2023-02-28T19:34:50.766Z,55.94
2023-02-28T19:37:58.353Z,55.84
2023-02-28T19:41:03.826Z,55.69
2023-02-28T19:44:07.221Z,56.25
2023-02-28T19:47:09.602Z,56.61
2023-02-28T19:50:12.706Z,55.88
2023-02-28T19:53:15.068Z,55.99
2023-02-28T19:56:17.325Z,55.91
2023-02-28T19:59:21.987Z,56.09
2023-02-28T20:02:33.372Z,56.09
2023-02-28T20:05:35.741Z,56.51
2023-02-28T20:08:39.315Z,57.01
2023-02-28T20:11:41.676Z,56.17
2023-02-28T20:14:45.161Z,56.04
2023-02-28T20:17:48.360Z,56.53
2023-02-28T20:20:51.456Z,56.61
2023-02-28T20:23:54.522Z,57.49
2023-02-28T20:26:58.496Z,57.16
2023-02-28T20:30:02.181Z,57.31
2023-02-28T20:33:06.968Z,57.59
2023-02-28T20:36:10.408Z,57.29
2023-02-28T20:39:14.090Z,56.52
2023-02-28T20:42:17.089Z,56.50
2023-02-28T20:45:19.691Z,56.12
2023-02-28T20:48:23.124Z,56.54
2023-02-28T20:51:25.534Z,56.82
2023-02-28T20:54:30.510Z,56.97
2023-02-28T20:57:33.067Z,57.33
2023-02-28T21:00:37.987Z,57.64
2023-02-28T21:03:45.127Z,57.95
2023-02-28T21:06:47.764Z,58.18
2023-02-28T21:09:50.260Z,57.15
2023-02-28T21:12:57.843Z,57.69
2023-02-28T21:16:08.940Z,58.00
2023-02-28T21:19:11.407Z,57.85
2023-02-28T21:22:14.219Z,57.50
2023-02-28T21:25:16.550Z,57.36
2023-02-28T21:28:18.660Z,58.03
2023-02-28T21:31:22.858Z,58.30
2023-02-28T21:34:27.006Z,57.90
2023-02-28T21:37:29.393Z,57.80
2023-02-28T21:40:31.817Z,57.63
2023-02-28T21:43:35.000Z,57.17
2023-02-28T21:46:37.424Z,57.45
2023-02-28T21:49:40.038Z,57.91
2023-02-28T21:52:45.282Z,57.18
2023-02-28T21:55:47.402Z,57.12
2023-02-28T21:58:50.274Z,56.76
2023-02-28T22:01:52.510Z,56.48
2023-02-28T22:04:54.572Z,57.19
2023-02-28T22:07:56.800Z,57.25
2023-02-28T22:11:03.607Z,57.09
2023-02-28T22:14:08.326Z,57.52
2023-02-28T22:17:11.498Z,56.71
2023-02-28T22:20:13.734Z,56.74
2023-02-28T22:23:16.194Z,56.86
2023-02-28T22:26:21.523Z,57.04
2023-02-28T22:29:24.318Z,57.36
2023-02-28T22:32:26.605Z,56.82
2023-02-28T22:35:29.069Z,56.87
2023-02-28T22:38:35.557Z,56.77
2023-02-28T22:41:38.635Z,56.52
2023-02-28T22:44:41.194Z,57.45
2023-02-28T22:47:43.349Z,57.33
2023-02-28T22:50:46.037Z,57.12
2023-02-28T22:53:49.502Z,57.26
2023-02-28T22:56:51.757Z,57.43
2023-02-28T22:59:53.721Z,57.18
2023-02-28T23:02:55.684Z,56.99
2023-02-28T23:05:57.750Z,57.16
2023-02-28T23:09:03.894Z,57.72
2023-02-28T23:12:06.583Z,57.94
2023-02-28T23:15:10.728Z,57.49
2023-02-28T23:18:14.018Z,57.76
2023-02-28T23:21:16.051Z,57.70
2023-02-28T23:24:20.362Z,57.76
2023-02-28T23:27:22.410Z,58.33
2023-02-28T23:30:25.279Z,57.34
2023-02-28T23:33:27.599Z,58.25
2023-02-28T23:36:30.335Z,58.48
2023-02-28T23:39:33.537Z,58.73
2023-02-28T23:42:36.047Z,58.80
2023-02-28T23:45:39.159Z,58.26
2023-02-28T23:48:42.910Z,57.96
2023-02-28T23:51:45.085Z,58.41
2023-02-28T23:54:47.216Z,58.89
2023-02-28T23:57:49.499Z,58.93
